Time;durP1;ratioP1;P1;durP2;ratioP2;P2;SDS_P1;SDS_P2;PMS_P1;PMS_P2;Temp;Humidity;BMP_temperature;BMP_pressure;BME280_temperature;BME280_humidity;BME280_pressure;Samples;Min_cycle;Max_cycle;Signal;HPM_P1;HPM_P2
2023/10/24 00:00:00;;;;;;;20.07;13.03;;;6.60;99.90;;;;;;8319070;28;20494;-61
2023/10/24 00:04:01;;;;;;;29.50;19.87;;;6.80;99.90;;;;;;8326641;28;20190;-60
2023/10/24 00:08:02;;;;;;;29.67;18.97;;;6.90;99.90;;;;;;8327968;28;20232;-61
2023/10/24 00:12:06;;;;;;;28.27;19.70;;;7.00;99.90;;;;;;8326651;28;20225;-60
2023/10/24 00:16:07;;;;;;;34.17;24.93;;;7.20;99.90;;;;;;8327674;28;20205;-60
2023/10/24 00:20:08;;;;;;;31.47;23.23;;;7.30;99.90;;;;;;8324830;28;21676;-60
2023/10/24 00:24:11;;;;;;;28.87;19.87;;;7.50;99.90;;;;;;8320158;28;20192;-60
2023/10/24 00:28:12;;;;;;;21.17;16.67;;;7.60;99.90;;;;;;8320433;28;20215;-61
2023/10/24 00:32:12;;;;;;;27.03;19.83;;;7.70;99.90;;;;;;8318609;28;20185;-61
2023/10/24 00:36:13;;;;;;;28.60;20.97;;;7.70;99.90;;;;;;8339831;28;20314;-61
2023/10/24 00:40:14;;;;;;;27.23;21.93;;;7.60;99.90;;;;;;8318820;28;20243;-60
2023/10/24 00:44:15;;;;;;;27.90;21.60;;;7.60;99.90;;;;;;8319761;28;20480;-61
2023/10/24 00:48:17;;;;;;;28.73;20.37;;;7.60;99.90;;;;;;8330680;28;20182;-61
2023/10/24 00:52:19;;;;;;;22.93;18.03;;;7.60;99.90;;;;;;8324932;28;21664;-60
2023/10/24 00:56:21;;;;;;;21.73;16.30;;;7.60;99.90;;;;;;8317846;28;20214;-61
2023/10/24 01:00:24;;;;;;;20.63;16.13;;;7.60;99.90;;;;;;8319138;28;20204;-60
2023/10/24 01:04:26;;;;;;;22.50;16.40;;;7.60;99.90;;;;;;8324088;28;20181;-61
2023/10/24 01:08:27;;;;;;;23.40;16.23;;;7.60;99.90;;;;;;8326345;28;20183;-61
2023/10/24 01:12:28;;;;;;;20.30;15.83;;;7.60;99.90;;;;;;8326147;28;20182;-60
2023/10/24 01:16:32;;;;;;;23.47;17.70;;;7.60;99.90;;;;;;8328684;28;20214;-65
2023/10/24 01:20:33;;;;;;;33.07;25.27;;;7.70;99.90;;;;;;8323650;28;20189;-64
2023/10/24 01:24:34;;;;;;;29.80;21.97;;;7.80;99.90;;;;;;8342054;28;20250;-62
2023/10/24 01:28:35;;;;;;;28.40;19.13;;;7.90;99.90;;;;;;8333098;28;20196;-62
2023/10/24 01:32:36;;;;;;;22.80;18.17;;;7.90;99.90;;;;;;8333638;28;20190;-64
2023/10/24 01:36:37;;;;;;;26.63;18.63;;;7.90;99.90;;;;;;8325698;28;20214;-64
2023/10/24 01:40:37;;;;;;;28.70;20.20;;;7.90;99.90;;;;;;8324950;28;20209;-65
2023/10/24 01:44:38;;;;;;;24.63;17.57;;;7.90;99.90;;;;;;8332752;28;20210;-66
2023/10/24 01:48:40;;;;;;;23.57;17.03;;;7.90;99.90;;;;;;8331402;28;20246;-65
2023/10/24 01:52:42;;;;;;;20.97;16.83;;;7.90;99.90;;;;;;8330933;28;20192;-65
2023/10/24 01:56:42;;;;;;;25.67;20.60;;;8.00;99.90;;;;;;8323101;28;20271;-66
2023/10/24 02:00:43;;;;;;;24.73;17.53;;;8.00;99.90;;;;;;8324787;28;20206;-65
2023/10/24 02:04:44;;;;;;;22.03;15.70;;;8.00;99.90;;;;;;8323536;28;20189;-67
2023/10/24 02:08:44;;;;;;;27.77;18.17;;;8.10;99.90;;;;;;8327090;28;20205;-65
2023/10/24 02:12:46;;;;;;;23.30;16.77;;;8.10;99.90;;;;;;8325181;28;20278;-66
2023/10/24 02:16:47;;;;;;;23.40;15.73;;;8.10;99.90;;;;;;8326992;28;20238;-65
2023/10/24 02:20:47;;;;;;;19.53;15.33;;;8.10;99.90;;;;;;8322690;28;20187;-65
2023/10/24 02:24:48;;;;;;;22.17;15.67;;;8.10;99.90;;;;;;8341629;28;20187;-65
2023/10/24 02:28:49;;;;;;;24.73;17.40;;;8.10;99.90;;;;;;8325876;28;20194;-67
2023/10/24 02:32:50;;;;;;;27.20;19.47;;;8.10;99.90;;;;;;8326490;28;20224;-65
2023/10/24 02:36:50;;;;;;;24.87;17.13;;;8.20;99.90;;;;;;8328784;28;20228;-66
2023/10/24 02:40:52;;;;;;;30.03;19.70;;;8.20;99.90;;;;;;8328007;28;20190;-67
2023/10/24 02:44:53;;;;;;;24.50;17.67;;;8.20;99.90;;;;;;8322582;28;20517;-60
2023/10/24 02:48:54;;;;;;;23.43;15.80;;;8.20;99.90;;;;;;8321758;28;20521;-62
2023/10/24 02:52:54;;;;;;;24.73;16.50;;;8.20;99.90;;;;;;8328693;28;20182;-66
2023/10/24 02:56:55;;;;;;;20.97;16.23;;;8.20;99.90;;;;;;8322153;28;20271;-66
2023/10/24 03:01:04;;;;;;;30.43;20.00;;;8.30;99.90;;;;;;8324137;28;20224;-66
2023/10/24 03:05:06;;;;;;;41.77;26.60;;;8.30;99.90;;;;;;8324780;28;20248;-67
2023/10/24 03:09:09;;;;;;;33.07;22.47;;;8.30;99.90;;;;;;8324602;28;20462;-65
2023/10/24 03:13:09;;;;;;;30.13;23.23;;;8.40;99.90;;;;;;8326359;28;20392;-66
2023/10/24 03:17:11;;;;;;;31.77;23.67;;;8.40;99.90;;;;;;8324052;28;20624;-67
2023/10/24 03:21:12;;;;;;;28.53;23.50;;;8.40;99.90;;;;;;8322328;28;20191;-66
2023/10/24 03:25:13;;;;;;;53.73;35.20;;;8.40;99.90;;;;;;8320313;28;20245;-66
2023/10/24 03:29:14;;;;;;;53.77;29.63;;;8.40;99.90;;;;;;8318396;28;20214;-66
2023/10/24 03:33:14;;;;;;;42.03;25.50;;;8.40;99.90;;;;;;8325968;28;20187;-68
2023/10/24 03:37:17;;;;;;;34.07;25.50;;;8.40;99.90;;;;;;8323338;28;20215;-66
2023/10/24 03:41:18;;;;;;;29.93;21.93;;;8.50;99.90;;;;;;8321207;28;20213;-65
2023/10/24 03:45:19;;;;;;;33.20;20.47;;;8.50;99.90;;;;;;8321877;28;20201;-65
2023/10/24 03:49:20;;;;;;;51.07;27.47;;;8.50;99.90;;;;;;8325445;28;20187;-67
2023/10/24 03:53:21;;;;;;;39.37;21.90;;;8.50;99.90;;;;;;8321634;28;20190;-67
2023/10/24 03:57:21;;;;;;;29.00;19.00;;;8.50;99.90;;;;;;8321525;28;20219;-66
2023/10/24 04:01:22;;;;;;;40.40;25.07;;;8.50;99.90;;;;;;8322273;28;20208;-67
2023/10/24 04:05:23;;;;;;;40.63;25.20;;;8.60;99.90;;;;;;8323516;28;20191;-66
2023/10/24 04:09:23;;;;;;;32.80;23.50;;;8.50;99.90;;;;;;8321995;28;20188;-65
2023/10/24 04:13:24;;;;;;;32.40;21.93;;;8.60;99.90;;;;;;8319985;28;20519;-60
2023/10/24 04:17:25;;;;;;;34.63;22.80;;;8.50;99.90;;;;;;8321962;28;20199;-62
2023/10/24 04:21:25;;;;;;;33.43;24.53;;;8.50;99.90;;;;;;8328397;28;20182;-61
2023/10/24 04:25:28;;;;;;;30.60;21.87;;;8.50;99.90;;;;;;8322205;28;20197;-62
2023/10/24 04:29:31;;;;;;;29.20;20.67;;;8.40;99.90;;;;;;8318654;28;20270;-61
2023/10/24 04:33:31;;;;;;;30.40;22.47;;;8.40;99.90;;;;;;8322984;28;20179;-61
2023/10/24 04:37:32;;;;;;;32.57;21.60;;;8.40;99.90;;;;;;8320890;28;20292;-60
2023/10/24 04:41:33;;;;;;;27.77;19.50;;;8.40;99.90;;;;;;8337667;28;20179;-61
2023/10/24 04:45:35;;;;;;;33.10;20.93;;;8.40;99.90;;;;;;8327238;28;20186;-60
2023/10/24 04:49:36;;;;;;;46.20;25.33;;;8.40;99.90;;;;;;8322322;28;20289;-60
2023/10/24 04:53:37;;;;;;;33.90;23.23;;;8.40;99.90;;;;;;8320809;28;20241;-61
2023/10/24 04:57:38;;;;;;;28.83;20.97;;;8.40;99.90;;;;;;8335747;28;20332;-60
2023/10/24 05:01:39;;;;;;;34.87;21.90;;;8.40;99.90;;;;;;8333603;28;20198;-59
2023/10/24 05:05:39;;;;;;;70.73;40.87;;;8.40;99.90;;;;;;8327508;28;20224;-61
2023/10/24 05:09:40;;;;;;;76.90;45.17;;;8.40;99.90;;;;;;8325460;28;20223;-61
2023/10/24 05:13:41;;;;;;;76.00;37.50;;;8.40;99.90;;;;;;8328279;28;20186;-61
2023/10/24 05:17:41;;;;;;;36.30;25.10;;;8.40;99.90;;;;;;8328052;28;20210;-61
2023/10/24 05:21:42;;;;;;;29.80;23.07;;;8.40;99.90;;;;;;8324960;28;20183;-61
2023/10/24 05:25:43;;;;;;;86.27;63.93;;;8.30;99.90;;;;;;8328844;28;21300;-61
2023/10/24 05:29:44;;;;;;;67.33;52.10;;;8.20;99.90;;;;;;8323430;28;20213;-59
2023/10/24 05:33:44;;;;;;;47.23;35.80;;;8.10;99.90;;;;;;8324222;28;20268;-65
2023/10/24 05:37:45;;;;;;;46.10;35.10;;;8.10;99.90;;;;;;8324185;28;20205;-65
2023/10/24 05:41:47;;;;;;;46.10;31.33;;;8.00;99.90;;;;;;8324556;28;20178;-64
2023/10/24 05:45:47;;;;;;;38.13;27.37;;;8.00;99.90;;;;;;8323788;28;20191;-60
2023/10/24 05:49:49;;;;;;;37.17;25.10;;;8.00;99.90;;;;;;8327042;28;20198;-60
2023/10/24 05:53:51;;;;;;;32.33;22.47;;;8.00;99.90;;;;;;8329091;28;20194;-61
2023/10/24 05:57:51;;;;;;;55.73;37.53;;;7.90;99.90;;;;;;8326270;28;20247;-63
2023/10/24 06:01:52;;;;;;;55.07;35.10;;;8.00;99.90;;;;;;8322626;28;20211;-63
2023/10/24 06:05:53;;;;;;;41.00;27.90;;;8.20;99.90;;;;;;8329379;28;20235;-62
2023/10/24 06:09:57;;;;;;;45.50;27.63;;;8.30;99.90;;;;;;8322950;28;20240;-63
2023/10/24 06:13:57;;;;;;;48.47;34.63;;;8.40;99.90;;;;;;8329538;28;20194;-64
2023/10/24 06:17:58;;;;;;;53.47;39.90;;;8.50;99.90;;;;;;8329360;28;20463;-62
2023/10/24 06:21:59;;;;;;;60.70;41.90;;;8.60;99.90;;;;;;8324248;28;20190;-62
2023/10/24 06:26:00;;;;;;;41.73;28.97;;;8.70;99.90;;;;;;8325803;28;20179;-64
2023/10/24 06:30:01;;;;;;;32.13;23.50;;;8.70;99.90;;;;;;8326673;28;20242;-62
2023/10/24 06:34:03;;;;;;;33.23;23.40;;;8.80;99.90;;;;;;8321841;28;20211;-62
2023/10/24 06:38:04;;;;;;;32.53;25.10;;;8.90;99.90;;;;;;8326598;28;20235;-62
2023/10/24 06:42:05;;;;;;;38.20;26.30;;;9.00;99.90;;;;;;8326175;28;20189;-65
2023/10/24 06:46:05;;;;;;;34.73;26.13;;;9.20;99.90;;;;;;8326095;28;20285;-64
2023/10/24 06:50:07;;;;;;;33.30;24.07;;;9.30;99.90;;;;;;8322172;28;20198;-62
2023/10/24 06:54:08;;;;;;;35.33;25.87;;;9.60;99.90;;;;;;8324360;28;20205;-62
2023/10/24 06:58:08;;;;;;;43.70;28.37;;;9.80;99.90;;;;;;8338701;28;20218;-64
2023/10/24 07:02:09;;;;;;;28.50;23.83;;;9.90;99.90;;;;;;8323788;28;20556;-63
2023/10/24 07:06:13;;;;;;;33.90;23.50;;;10.00;99.90;;;;;;8326472;28;20202;-63
2023/10/24 07:10:13;;;;;;;29.43;20.47;;;10.20;99.90;;;;;;8324189;28;20201;-62
2023/10/24 07:14:14;;;;;;;32.97;22.20;;;10.30;99.90;;;;;;8326530;28;20458;-62
2023/10/24 07:18:15;;;;;;;25.47;20.37;;;10.30;99.90;;;;;;8321557;28;20204;-65
2023/10/24 07:22:15;;;;;;;28.30;20.17;;;10.50;99.90;;;;;;8322326;28;20190;-62
2023/10/24 07:26:18;;;;;;;33.47;20.83;;;10.80;99.90;;;;;;8322209;28;20213;-64
2023/10/24 07:30:21;;;;;;;26.27;18.50;;;10.90;99.90;;;;;;8321465;28;20205;-62
2023/10/24 07:34:22;;;;;;;32.43;23.37;;;11.10;99.90;;;;;;8323573;28;20261;-62
2023/10/24 07:38:23;;;;;;;27.27;19.77;;;11.30;99.90;;;;;;8326203;28;20207;-65
2023/10/24 07:42:24;;;;;;;23.90;15.33;;;11.60;99.90;;;;;;8324302;28;20427;-64
2023/10/24 07:46:25;;;;;;;22.10;14.37;;;11.70;99.90;;;;;;8328000;28;20189;-63
2023/10/24 07:50:28;;;;;;;22.90;13.93;;;11.80;99.90;;;;;;8321747;28;20205;-63
2023/10/24 07:54:29;;;;;;;21.73;12.97;;;11.70;99.90;;;;;;8325305;28;20206;-63
2023/10/24 07:58:29;;;;;;;14.50;11.57;;;11.70;99.90;;;;;;8325193;28;20593;-62
2023/10/24 08:02:31;;;;;;;20.27;15.53;;;11.70;99.90;;;;;;8324534;28;20247;-63
2023/10/24 08:06:32;;;;;;;22.20;14.10;;;11.70;99.90;;;;;;8320234;28;20205;-65
2023/10/24 08:10:33;;;;;;;19.07;12.47;;;11.70;99.90;;;;;;8319131;28;20189;-67
2023/10/24 08:14:33;;;;;;;18.57;11.47;;;11.70;99.90;;;;;;8317582;28;20260;-62
2023/10/24 08:18:34;;;;;;;15.17;10.77;;;11.80;99.90;;;;;;8319263;28;20210;-64
2023/10/24 08:22:35;;;;;;;19.07;12.80;;;12.00;99.90;;;;;;8319655;28;20234;-63
2023/10/24 08:26:36;;;;;;;15.37;11.70;;;12.20;99.90;;;;;;8320463;28;20185;-62
2023/10/24 08:30:37;;;;;;;17.00;11.50;;;12.30;99.90;;;;;;8322912;28;20218;-64
2023/10/24 08:34:38;;;;;;;16.67;11.80;;;12.40;99.90;;;;;;8321498;28;20296;-62
2023/10/24 08:38:39;;;;;;;16.40;11.83;;;12.50;99.90;;;;;;8326587;28;20205;-62
2023/10/24 08:42:40;;;;;;;16.90;11.67;;;12.60;99.90;;;;;;8324774;28;20182;-62
2023/10/24 08:46:41;;;;;;;15.73;10.30;;;12.70;99.90;;;;;;8320812;28;20182;-61
2023/10/24 08:50:45;;;;;;;12.97;9.83;;;12.90;99.90;;;;;;8322171;28;20216;-62
2023/10/24 08:54:46;;;;;;;15.47;9.87;;;13.00;99.90;;;;;;8320301;28;20227;-66
2023/10/24 08:58:49;;;;;;;13.43;10.17;;;13.20;99.90;;;;;;8321619;28;20393;-62
2023/10/24 09:02:50;;;;;;;14.73;10.07;;;13.30;99.90;;;;;;8320263;28;20245;-61
2023/10/24 09:06:51;;;;;;;15.27;11.40;;;13.40;99.90;;;;;;8321026;28;20194;-66
2023/10/24 09:10:52;;;;;;;19.10;10.90;;;13.40;99.90;;;;;;8323825;28;20188;-64
2023/10/24 09:14:56;;;;;;;16.03;9.43;;;13.50;99.90;;;;;;8336104;28;20224;-64
2023/10/24 09:18:57;;;;;;;15.47;10.00;;;13.80;99.90;;;;;;8317873;28;20213;-65
2023/10/24 09:23:04;;;;;;;12.57;8.43;;;14.00;99.90;;;;;;8318843;28;20306;-64
2023/10/24 09:27:04;;;;;;;12.97;8.50;;;14.20;99.90;;;;;;8333091;28;20190;-62
2023/10/24 09:31:07;;;;;;;9.90;7.80;;;14.50;99.90;;;;;;8315622;28;20187;-63
2023/10/24 09:35:08;;;;;;;14.63;8.40;;;14.60;99.90;;;;;;8318696;28;20183;-67
2023/10/24 09:39:11;;;;;;;12.47;9.13;;;14.70;99.90;;;;;;8321740;28;20438;-67
2023/10/24 09:43:19;;;;;;;12.57;8.80;;;14.80;99.90;;;;;;8325974;28;20181;-65
2023/10/24 09:47:21;;;;;;;13.70;9.20;;;15.10;99.90;;;;;;8326294;28;20273;-64
2023/10/24 09:51:22;;;;;;;12.70;9.53;;;15.10;99.90;;;;;;8326148;28;20186;-63
2023/10/24 09:55:23;;;;;;;10.33;8.10;;;15.10;21.90;;;;;;8323689;28;20461;-62
2023/10/24 09:59:26;;;;;;;15.70;10.40;;;15.30;16.20;;;;;;8329942;28;20224;-64
2023/10/24 10:03:27;;;;;;;13.53;8.77;;;15.30;1.00;;;;;;8332540;28;20197;-64
2023/10/24 10:07:28;;;;;;;13.60;8.70;;;15.50;1.00;;;;;;8326408;28;20287;-63
2023/10/24 10:11:31;;;;;;;14.80;7.83;;;15.70;1.00;;;;;;8323243;28;20190;-64
2023/10/24 10:15:55;;;;;;;12.40;8.00;;;15.70;1.00;;;;;;8322712;28;20193;-65
2023/10/24 10:20:28;;;;;;;13.47;8.27;;;15.70;1.00;;;;;;8327289;28;20181;-64
2023/10/24 10:24:44;;;;;;;13.17;8.53;;;15.80;1.00;;;;;;8321964;28;20199;-64
2023/10/24 10:29:01;;;;;;;13.63;7.47;;;16.00;1.00;;;;;;8327040;28;20198;-64
2023/10/24 10:33:18;;;;;;;10.93;6.63;;;16.20;1.00;;;;;;8327863;28;20189;-62
2023/10/24 10:37:19;;;;;;;12.10;6.87;;;16.40;1.00;;;;;;8322111;28;20218;-64
2023/10/24 10:41:23;;;;;;;10.00;6.67;;;16.40;1.00;;;;;;8327331;28;20178;-62
2023/10/24 10:45:32;;;;;;;9.90;6.43;;;16.50;1.00;;;;;;8321017;28;20186;-63
2023/10/24 10:49:42;;;;;;;14.20;8.33;;;16.50;1.00;;;;;;8323711;28;20209;-65
2023/10/24 10:53:56;;;;;;;11.47;6.60;;;16.60;1.00;;;;;;8325311;28;20205;-68
2023/10/24 10:58:10;;;;;;;12.07;6.83;;;16.70;1.00;;;;;;8322906;28;20206;-67
2023/10/24 11:02:32;;;;;;;9.43;5.87;;;16.60;1.00;;;;;;8323406;28;20268;-69
2023/10/24 11:06:34;;;;;;;8.70;6.30;;;16.60;1.00;;;;;;8319791;28;20187;-68
2023/10/24 11:10:59;;;;;;;9.83;7.23;;;16.70;1.00;;;;;;8323649;28;20428;-67
2023/10/24 11:15:22;;;;;;;14.43;7.83;;;16.70;1.00;;;;;;8321394;28;20293;-66
2023/10/24 11:19:24;;;;;;;14.03;7.40;;;16.50;1.00;;;;;;8322981;28;20213;-65
2023/10/24 11:23:26;;;;;;;15.03;8.40;;;16.30;1.00;;;;;;8322396;28;20187;-66
2023/10/24 11:27:27;;;;;;;12.53;7.53;;;16.10;1.00;;;;;;8318032;28;20252;-63
2023/10/24 11:31:28;;;;;;;12.80;7.17;;;15.90;1.00;;;;;;8327763;28;20416;-65
2023/10/24 11:35:29;;;;;;;17.43;8.63;;;15.80;1.00;;;;;;8322623;28;20194;-66
2023/10/24 11:39:30;;;;;;;12.70;8.00;;;15.60;1.00;;;;;;8338259;28;20255;-65
2023/10/24 11:43:32;;;;;;;14.33;8.50;;;15.60;1.00;;;;;;8321176;28;20182;-65
2023/10/24 11:47:33;;;;;;;10.87;7.57;;;15.40;1.00;;;;;;8341875;28;20341;-64
2023/10/24 11:51:34;;;;;;;14.90;8.40;;;15.50;1.00;;;;;;8321536;28;20269;-63
2023/10/24 11:55:35;;;;;;;12.77;8.47;;;15.60;1.00;;;;;;8321472;28;20198;-66
2023/10/24 11:59:36;;;;;;;12.53;8.43;;;15.60;1.00;;;;;;8321620;28;20252;-66
2023/10/24 12:03:47;;;;;;;14.10;8.50;;;15.50;1.00;;;;;;8322220;28;20236;-64
2023/10/24 12:07:59;;;;;;;17.33;10.27;;;15.40;1.00;;;;;;8337192;28;20579;-62
2023/10/24 12:12:07;;;;;;;14.00;9.87;;;15.40;11.00;;;;;;8322784;28;20190;-63
2023/10/24 12:16:08;;;;;;;13.90;8.40;;;15.50;11.50;;;;;;8319214;28;20245;-65
2023/10/24 12:20:09;;;;;;;15.20;10.57;;;15.50;16.50;;;;;;8321000;28;20186;-66
2023/10/24 12:24:10;;;;;;;19.77;12.47;;;15.50;8.60;;;;;;8325355;28;20177;-65
2023/10/24 12:28:13;;;;;;;13.03;8.50;;;15.50;17.20;;;;;;8352378;28;20281;-67
2023/10/24 12:32:13;;;;;;;10.30;7.60;;;15.60;16.50;;;;;;8319380;28;20216;-67
2023/10/24 12:36:15;;;;;;;11.60;7.63;;;15.70;14.50;;;;;;8318338;28;20205;-66
2023/10/24 12:40:16;;;;;;;16.43;8.97;;;15.80;7.30;;;;;;8322949;28;20178;-66
2023/10/24 12:44:17;;;;;;;10.23;7.70;;;15.90;1.00;;;;;;8319093;28;20200;-66
2023/10/24 12:48:18;;;;;;;9.77;6.73;;;15.90;1.00;;;;;;8339073;28;20192;-66
2023/10/24 12:52:19;;;;;;;11.63;7.77;;;15.90;1.00;;;;;;8319330;28;20224;-65
2023/10/24 12:56:19;;;;;;;9.93;7.30;;;15.90;1.00;;;;;;8319062;28;20209;-66
2023/10/24 13:00:20;;;;;;;9.07;6.93;;;15.90;1.00;;;;;;8318785;28;20625;-65
2023/10/24 13:04:21;;;;;;;14.77;8.47;;;15.90;4.10;;;;;;8317728;28;20186;-66
2023/10/24 13:08:22;;;;;;;14.10;8.17;;;15.80;8.80;;;;;;8321216;28;20194;-65
2023/10/24 13:12:23;;;;;;;11.37;6.57;;;15.80;17.70;;;;;;8324627;28;20256;-66
2023/10/24 13:16:23;;;;;;;9.97;6.80;;;15.80;19.50;;;;;;8323487;28;20209;-65
2023/10/24 13:20:24;;;;;;;32.83;17.07;;;15.90;17.80;;;;;;8327231;28;20218;-65
2023/10/24 13:24:25;;;;;;;28.13;13.70;;;15.90;12.90;;;;;;8326421;28;20247;-66
2023/10/24 13:28:26;;;;;;;28.47;18.50;;;15.80;11.30;;;;;;8325120;28;20224;-65
2023/10/24 13:32:26;;;;;;;16.50;11.73;;;15.80;11.60;;;;;;8327726;28;20269;-65
2023/10/24 13:36:27;;;;;;;15.53;10.27;;;15.80;18.10;;;;;;8342834;28;20205;-64
2023/10/24 13:40:28;;;;;;;22.63;14.10;;;15.80;26.20;;;;;;8326937;28;20190;-66
2023/10/24 13:44:30;;;;;;;16.63;11.83;;;15.70;48.80;;;;;;8325826;28;20186;-66
2023/10/24 13:48:30;;;;;;;18.17;11.87;;;15.60;72.30;;;;;;8326099;28;20215;-66
2023/10/24 13:52:33;;;;;;;13.50;10.10;;;15.60;92.00;;;;;;8330300;28;20173;-65
2023/10/24 13:56:34;;;;;;;13.10;8.93;;;15.50;99.90;;;;;;8322689;28;20206;-66
2023/10/24 14:00:35;;;;;;;13.87;10.07;;;15.50;99.90;;;;;;8324296;28;20244;-66
2023/10/24 14:04:35;;;;;;;20.97;10.50;;;15.40;99.90;;;;;;8320441;28;20502;-65
2023/10/24 14:08:36;;;;;;;16.50;10.47;;;15.40;99.90;;;;;;8324939;28;20268;-65
2023/10/24 14:12:37;;;;;;;16.17;10.43;;;15.30;99.90;;;;;;8326401;28;20183;-65
2023/10/24 14:16:38;;;;;;;15.93;10.70;;;15.10;99.90;;;;;;8324784;28;20305;-65
2023/10/24 14:20:39;;;;;;;16.00;9.43;;;15.00;99.90;;;;;;8332551;28;20189;-68
2023/10/24 14:24:40;;;;;;;12.93;7.67;;;15.00;99.90;;;;;;8323553;28;20190;-66
2023/10/24 14:28:41;;;;;;;16.67;11.93;;;14.90;99.90;;;;;;8324360;28;20248;-65
2023/10/24 14:32:42;;;;;;;16.70;11.40;;;14.90;99.90;;;;;;8322359;28;20254;-64
2023/10/24 14:36:42;;;;;;;23.50;13.50;;;14.80;99.90;;;;;;8329142;28;20268;-65
2023/10/24 14:40:43;;;;;;;23.47;15.60;;;14.70;99.90;;;;;;8320295;28;20185;-65
2023/10/24 14:44:44;;;;;;;21.97;14.27;;;14.60;99.90;;;;;;8326688;28;20174;-62
2023/10/24 14:48:45;;;;;;;18.00;11.57;;;14.50;99.90;;;;;;8325424;28;20208;-65
2023/10/24 14:52:46;;;;;;;22.03;12.93;;;14.50;99.90;;;;;;8328171;28;20407;-65
2023/10/24 14:56:46;;;;;;;23.10;15.30;;;14.40;99.90;;;;;;8324869;28;20214;-65
2023/10/24 15:00:47;;;;;;;31.50;19.17;;;14.40;1.00;;;;;;8320652;28;20400;-65
2023/10/24 15:04:48;;;;;;;25.87;17.90;;;14.20;1.00;;;;;;8322334;28;20177;-65
2023/10/24 15:08:51;;;;;;;28.10;18.03;;;14.20;1.00;;;;;;8328070;28;20177;-65
2023/10/24 15:12:53;;;;;;;19.67;15.10;;;14.10;1.00;;;;;;8354898;28;20674;-66
2023/10/24 15:16:54;;;;;;;14.63;11.50;;;14.00;20.00;;;;;;8322603;28;20255;-65
2023/10/24 15:20:58;;;;;;;10.23;8.60;;;13.90;54.70;;;;;;8327966;28;20288;-66
2023/10/24 15:24:59;;;;;;;10.87;8.17;;;13.90;99.90;;;;;;8322078;28;20182;-66
2023/10/24 15:29:00;;;;;;;13.37;9.47;;;13.70;99.90;;;;;;8321548;28;20186;-66
2023/10/24 15:33:01;;;;;;;31.03;19.53;;;13.60;99.90;;;;;;8323863;28;20202;-66
2023/10/24 15:37:03;;;;;;;27.50;17.30;;;13.60;1.00;;;;;;8320656;28;20526;-66
2023/10/24 15:41:04;;;;;;;24.63;18.20;;;13.50;1.00;;;;;;8326028;28;20205;-66
2023/10/24 15:45:05;;;;;;;23.87;17.37;;;13.40;63.20;;;;;;8321226;28;20194;-65
2023/10/24 15:49:07;;;;;;;45.57;28.47;;;13.20;99.90;;;;;;8324088;28;20194;-65
2023/10/24 15:53:07;;;;;;;146.30;77.57;;;13.20;1.00;;;;;;8321404;28;20190;-62
2023/10/24 15:57:08;;;;;;;27.23;17.90;;;13.20;99.90;;;;;;8321171;28;20245;-63
2023/10/24 16:01:14;;;;;;;18.37;14.40;;;13.00;99.90;;;;;;8320118;28;20202;-64
2023/10/24 16:05:15;;;;;;;16.23;12.97;;;12.90;1.00;;;;;;8322251;28;20249;-66
2023/10/24 16:09:16;;;;;;;17.33;12.47;;;12.70;99.90;;;;;;8322049;28;20193;-67
2023/10/24 16:13:17;;;;;;;18.03;12.73;;;12.60;99.90;;;;;;8322084;28;20185;-65
2023/10/24 16:17:17;;;;;;;18.27;12.70;;;12.60;99.90;;;;;;8319718;28;20269;-67
2023/10/24 16:21:19;;;;;;;16.93;12.70;;;12.60;99.90;;;;;;8322189;28;20269;-66
2023/10/24 16:25:20;;;;;;;18.10;13.97;;;12.60;1.00;;;;;;8321882;28;20175;-67
2023/10/24 16:29:21;;;;;;;20.97;14.67;;;12.50;1.00;;;;;;8325435;28;20202;-67
2023/10/24 16:33:22;;;;;;;18.27;13.73;;;12.50;99.90;;;;;;8321605;28;20198;-64
2023/10/24 16:37:23;;;;;;;18.57;12.80;;;12.50;99.90;;;;;;8321068;28;20205;-67
2023/10/24 16:41:23;;;;;;;16.90;12.17;;;12.40;99.90;;;;;;8320512;28;20194;-65
2023/10/24 16:45:25;;;;;;;19.10;14.33;;;12.40;99.90;;;;;;8323516;28;20186;-67
2023/10/24 16:49:27;;;;;;;24.90;17.30;;;12.40;99.90;;;;;;8331437;28;20194;-66
2023/10/24 16:53:29;;;;;;;23.53;17.50;;;12.40;99.90;;;;;;8331835;28;20581;-67
2023/10/24 16:57:30;;;;;;;20.07;15.67;;;12.40;99.90;;;;;;8334728;28;20203;-67
2023/10/24 17:01:31;;;;;;;17.57;13.50;;;12.40;99.90;;;;;;8331782;28;20269;-65
2023/10/24 17:05:32;;;;;;;17.63;13.77;;;12.40;99.90;;;;;;8332268;28;20181;-67
2023/10/24 17:09:34;;;;;;;17.33;12.90;;;12.40;99.90;;;;;;8332805;28;20243;-67
2023/10/24 17:13:35;;;;;;;15.90;12.53;;;12.40;99.90;;;;;;8345954;28;20300;-66
2023/10/24 17:17:36;;;;;;;18.13;12.30;;;12.40;99.90;;;;;;8334414;28;20276;-68
2023/10/24 17:21:37;;;;;;;20.90;14.67;;;12.50;99.90;;;;;;8329649;28;20190;-67
2023/10/24 17:25:41;;;;;;;21.23;14.43;;;12.50;99.90;;;;;;8325945;28;20194;-67
2023/10/24 17:29:42;;;;;;;20.00;14.00;;;12.50;99.90;;;;;;8327641;28;20304;-66
2023/10/24 17:33:43;;;;;;;16.53;13.50;;;12.50;99.90;;;;;;8328173;28;20186;-66
2023/10/24 17:37:45;;;;;;;20.63;12.97;;;12.50;99.90;;;;;;8328925;28;20974;-66
2023/10/24 17:41:45;;;;;;;17.87;13.07;;;12.50;99.90;;;;;;8327002;28;20255;-66
2023/10/24 17:45:46;;;;;;;21.23;13.60;;;12.50;99.90;;;;;;8332013;28;20200;-67
2023/10/24 17:49:49;;;;;;;18.77;14.50;;;12.50;99.90;;;;;;8329148;28;20185;-65
2023/10/24 17:53:50;;;;;;;20.83;13.67;;;12.50;99.90;;;;;;8328596;28;20513;-66
2023/10/24 17:57:52;;;;;;;18.83;13.43;;;12.50;99.90;;;;;;8331960;28;20448;-65
2023/10/24 18:01:53;;;;;;;17.23;12.90;;;12.50;99.90;;;;;;8326944;28;20201;-65
2023/10/24 18:05:55;;;;;;;18.43;12.03;;;12.50;99.90;;;;;;8324762;28;20269;-67
2023/10/24 18:09:56;;;;;;;16.07;11.50;;;12.60;99.90;;;;;;8324300;28;20298;-66
2023/10/24 18:13:57;;;;;;;21.80;13.43;;;12.60;99.90;;;;;;8323305;28;20177;-61
2023/10/24 18:17:58;;;;;;;13.33;10.77;;;12.60;99.90;;;;;;8325419;28;20232;-62
2023/10/24 18:21:58;;;;;;;16.67;11.70;;;12.60;99.90;;;;;;8328973;28;20208;-61
2023/10/24 18:25:59;;;;;;;16.43;12.60;;;12.60;99.90;;;;;;8326542;28;20181;-68
2023/10/24 18:30:05;;;;;;;70.57;42.73;;;12.60;99.90;;;;;;8322972;28;20186;-66
2023/10/24 18:34:06;;;;;;;44.70;28.43;;;12.50;99.90;;;;;;8326383;28;20213;-68
2023/10/24 18:38:07;;;;;;;120.93;85.37;;;12.50;99.90;;;;;;8323928;28;20214;-67
2023/10/24 18:42:08;;;;;;;72.87;53.07;;;12.50;99.90;;;;;;8323844;28;20177;-67
2023/10/24 18:46:10;;;;;;;63.53;44.33;;;12.50;99.90;;;;;;8324279;28;20189;-65
2023/10/24 18:50:10;;;;;;;60.13;44.90;;;12.40;99.90;;;;;;8324789;28;20208;-64
2023/10/24 18:54:13;;;;;;;84.73;55.37;;;12.40;99.90;;;;;;8325336;28;20397;-64
2023/10/24 18:58:14;;;;;;;45.00;30.80;;;12.40;99.90;;;;;;8323057;28;20199;-67
2023/10/24 19:02:15;;;;;;;31.80;25.03;;;12.30;99.90;;;;;;8323936;28;20198;-66
2023/10/24 19:06:16;;;;;;;63.77;45.67;;;12.30;99.90;;;;;;8324850;28;20196;-65
2023/10/24 19:10:17;;;;;;;57.13;40.17;;;12.30;99.90;;;;;;8328807;28;20627;-67
2023/10/24 19:14:19;;;;;;;51.43;34.17;;;12.30;99.90;;;;;;8324869;28;20205;-66
2023/10/24 19:18:20;;;;;;;78.73;41.07;;;12.30;99.90;;;;;;8325241;28;20210;-65
2023/10/24 19:22:21;;;;;;;42.77;28.00;;;12.30;99.90;;;;;;8332788;28;20197;-66
2023/10/24 19:26:22;;;;;;;26.10;18.20;;;12.20;99.90;;;;;;8322612;28;20624;-62
2023/10/24 19:30:23;;;;;;;20.43;15.63;;;12.20;99.90;;;;;;8319232;28;20189;-61
2023/10/24 19:34:25;;;;;;;20.67;15.13;;;12.20;99.90;;;;;;8326696;28;20190;-63
2023/10/24 19:38:27;;;;;;;20.47;15.00;;;12.10;99.90;;;;;;8320214;28;20228;-61
2023/10/24 19:42:28;;;;;;;17.83;13.97;;;12.10;99.90;;;;;;8323234;28;20174;-62
2023/10/24 19:46:35;;;;;;;20.20;13.70;;;12.10;99.90;;;;;;8323051;28;20190;-61
2023/10/24 19:50:36;;;;;;;17.83;13.37;;;12.00;99.90;;;;;;8323632;28;20190;-61
2023/10/24 19:54:37;;;;;;;15.77;11.60;;;12.00;99.90;;;;;;8321651;28;20198;-61
2023/10/24 19:58:39;;;;;;;13.07;10.93;;;12.00;99.90;;;;;;8320034;28;20409;-61
2023/10/24 20:02:41;;;;;;;13.27;11.37;;;12.00;99.90;;;;;;8322533;28;20232;-61
2023/10/24 20:06:44;;;;;;;14.63;11.87;;;11.90;99.90;;;;;;8320708;28;20190;-62
2023/10/24 20:10:46;;;;;;;16.63;12.17;;;11.90;99.90;;;;;;8322768;28;20182;-63
2023/10/24 20:14:47;;;;;;;17.87;13.03;;;11.90;99.90;;;;;;8322431;28;20195;-63
2023/10/24 20:18:50;;;;;;;17.27;13.93;;;11.90;99.90;;;;;;8318776;28;20210;-62
2023/10/24 20:22:51;;;;;;;19.30;14.30;;;11.80;99.90;;;;;;8319735;28;20178;-62
2023/10/24 20:26:54;;;;;;;20.90;15.53;;;11.80;99.90;;;;;;8334258;28;20181;-62
2023/10/24 20:30:54;;;;;;;16.90;14.07;;;11.80;99.90;;;;;;8320644;28;20593;-63
2023/10/24 20:34:55;;;;;;;24.47;16.00;;;11.70;99.90;;;;;;8321649;28;20218;-63